createdAt,value
2022-08-07T00:02:37.373Z,100590.75
2022-08-07T00:05:00.816Z,100576.31
2022-08-07T00:07:40.189Z,100578.53
2022-08-07T00:10:26.618Z,100574.03
2022-08-07T00:12:58.009Z,100569.09
2022-08-07T00:15:37.697Z,100567.38
2022-08-07T00:18:19.340Z,100565.69
2022-08-07T00:20:49.462Z,100566.06
2022-08-07T00:23:17.061Z,100566.34
2022-08-07T00:25:45.873Z,100566.94
2022-08-07T00:28:22.152Z,100562.28
2022-08-07T00:30:48.712Z,100553.56
2022-08-07T00:33:15.656Z,100562.28
2022-08-07T00:35:45.370Z,100555.50
2022-08-07T00:38:16.657Z,100556.63
2022-08-07T00:40:59.182Z,100559.13
2022-08-07T00:44:00.521Z,100555.72
2022-08-07T00:46:12.769Z,100543.59
2022-08-07T00:48:42.215Z,100549.22
2022-08-07T00:51:09.710Z,100549.31
2022-08-07T00:53:39.200Z,100549.59
2022-08-07T00:56:18.301Z,100549.59
2022-08-07T00:58:47.153Z,100542.66
2022-08-07T01:01:17.322Z,100545.22
2022-08-07T01:03:55.609Z,100558.72
2022-08-07T01:06:25.011Z,100543.69
2022-08-07T01:08:53.350Z,100540.19
2022-08-07T01:12:04.414Z,100540.31
2022-08-07T01:14:09.446Z,100542.63
2022-08-07T01:16:37.048Z,100541.53
2022-08-07T01:19:18.250Z,100545.91
2022-08-07T01:21:49.404Z,100538.03
2022-08-07T01:24:21.564Z,100541.53
2022-08-07T01:26:52.116Z,100547.88
2022-08-07T01:29:23.217Z,100542.53
2022-08-07T01:31:52.432Z,100540.69
2022-08-07T01:34:20.638Z,100545.22
2022-08-07T01:36:58.713Z,100541.53
2022-08-07T01:39:41.201Z,100543.28
2022-08-07T01:42:37.883Z,100544.25
2022-08-07T01:45:09.715Z,100542.16
2022-08-07T01:48:21.129Z,100546.69
2022-08-07T01:50:31.035Z,100549.50
2022-08-07T01:52:59.051Z,100540.41
2022-08-07T01:55:37.514Z,100550.81
2022-08-07T01:58:29.513Z,100534.59
2022-08-07T02:01:10.140Z,100531.47
2022-08-07T02:03:51.246Z,100541.88
2022-08-07T02:06:32.027Z,100530.50
2022-08-07T02:09:04.706Z,100537.50
2022-08-07T02:12:02.681Z,100531.69
2022-08-07T02:14:35.742Z,100531.63
2022-08-07T02:17:06.051Z,100531.72
2022-08-07T02:20:06.898Z,100521.91
2022-08-07T02:22:26.182Z,100530.66
2022-08-07T02:24:56.265Z,100526.03
2022-08-07T02:27:25.025Z,100520.31
2022-08-07T02:29:54.733Z,100520.09
2022-08-07T02:32:29.944Z,100514.97
2022-08-07T02:34:58.305Z,100519.44
2022-08-07T02:37:28.175Z,100513.28
2022-08-07T02:40:29.608Z,100508.81
2022-08-07T02:42:56.148Z,100520.59
2022-08-07T02:46:00.276Z,100514.25
2022-08-07T02:48:15.662Z,100504.13
2022-08-07T02:50:53.438Z,100504.00
2022-08-07T02:53:27.470Z,100513.69
2022-08-07T02:56:04.076Z,100506.66
2022-08-07T02:58:34.520Z,100505.44
2022-08-07T03:01:04.011Z,100501.91
2022-08-07T03:03:49.489Z,100504.47
2022-08-07T03:06:25.833Z,100508.34
2022-08-07T03:09:03.963Z,100502.41
2022-08-07T03:11:32.619Z,100504.47
2022-08-07T03:14:02.071Z,100505.31
2022-08-07T03:16:30.934Z,100508.25
2022-08-07T03:19:01.497Z,100513.94
2022-08-07T03:21:28.977Z,100515.38
2022-08-07T03:24:20.658Z,100512.84
2022-08-07T03:26:51.314Z,100508.25
2022-08-07T03:29:28.297Z,100506.19
2022-08-07T03:31:55.896Z,100501.06
2022-08-07T03:34:27.173Z,100501.81
2022-08-07T03:36:58.050Z,100492.09
2022-08-07T03:39:59.145Z,100492.09
2022-08-07T03:42:16.350Z,100499.75
2022-08-07T03:44:47.141Z,100497.22
2022-08-07T03:47:20.575Z,100494.66
2022-08-07T03:49:52.240Z,100500.47
2022-08-07T03:52:27.558Z,100491.75
2022-08-07T03:55:06.906Z,100498.78
2022-08-07T03:58:34.438Z,100510.66
2022-08-07T04:00:33.574Z,100498.22
2022-08-07T04:03:03.836Z,100508.53
2022-08-07T04:05:41.072Z,100513.13
2022-08-07T04:08:16.039Z,100513.25
2022-08-07T04:10:54.528Z,100519.19
2022-08-07T04:14:10.268Z,100527.44
2022-08-07T04:16:31.093Z,100521.75
2022-08-07T04:19:12.308Z,100519.41
2022-08-07T04:21:59.592Z,100512.53
2022-08-07T04:24:39.071Z,100513.88
2022-08-07T04:27:15.341Z,100522.22
2022-08-07T04:30:01.700Z,100516.41
2022-08-07T04:33:07.784Z,100530.34
2022-08-07T04:35:38.171Z,100536.41
2022-08-07T04:38:11.513Z,100536.75
2022-08-07T04:40:51.859Z,100536.41
2022-08-07T04:44:11.951Z,100539.19
2022-08-07T04:47:04.936Z,100547.56
2022-08-07T04:50:05.447Z,100542.44
2022-08-07T04:53:05.843Z,100549.25
2022-08-07T04:58:13.247Z,100548.28
2022-08-07T04:59:17.061Z,100551.91
2022-08-07T05:01:30.003Z,100558.97
2022-08-07T05:04:17.246Z,100554.81
2022-08-07T05:07:09.603Z,100555.69
2022-08-07T05:10:11.743Z,100564.28
2022-08-07T05:16:04.534Z,100562.34
2022-08-07T05:18:47.268Z,100565.00
2022-08-07T05:22:00.472Z,100564.53
2022-08-07T05:24:10.543Z,100571.09
2022-08-07T05:26:38.717Z,100570.50
2022-08-07T05:29:10.156Z,100566.13
2022-08-07T05:31:40.589Z,100572.78
2022-08-07T05:34:21.065Z,100568.44
2022-08-07T05:36:54.493Z,100569.75
2022-08-07T05:40:18.442Z,100567.91
2022-08-07T05:42:15.116Z,100571.06
2022-08-07T05:45:14.750Z,100577.28
2022-08-07T05:48:01.676Z,100581.75
2022-08-07T05:50:34.210Z,100575.19
2022-08-07T05:56:34.418Z,100589.75
2022-08-07T05:59:03.257Z,100582.94
2022-08-07T06:01:34.798Z,100591.94
2022-08-07T06:04:04.477Z,100584.00
2022-08-07T06:06:36.989Z,100585.69
2022-08-07T06:09:06.364Z,100585.78
2022-08-07T06:11:38.142Z,100594.41
2022-08-07T06:14:13.697Z,100588.53
2022-08-07T06:16:56.285Z,100597.00
2022-08-07T06:19:57.496Z,100598.06
2022-08-07T06:22:23.817Z,100592.94
2022-08-07T06:25:04.012Z,100592.66
2022-08-07T06:27:59.675Z,100592.16
2022-08-07T06:30:24.366Z,100597.69
2022-08-07T06:33:02.339Z,100598.50
2022-08-07T06:35:45.934Z,100591.53
2022-08-07T06:38:20.115Z,100590.63
2022-08-07T06:40:51.918Z,100595.16
2022-08-07T06:43:23.458Z,100598.19
2022-08-07T06:46:11.463Z,100603.56
2022-08-07T06:48:42.015Z,100593.44
2022-08-07T06:51:31.101Z,100596.72
2022-08-07T06:55:30.203Z,100586.06
2022-08-07T06:56:50.839Z,100585.09
2022-08-07T07:00:16.933Z,100581.16
2022-08-07T07:02:48.924Z,100583.44
2022-08-07T07:05:08.953Z,100584.56
2022-08-07T07:07:59.315Z,100574.44
2022-08-07T07:10:30.334Z,100592.38
2022-08-07T07:13:04.142Z,100593.66
2022-08-07T07:15:36.081Z,100596.91
2022-08-07T07:18:48.212Z,100587.50
2022-08-07T07:21:27.153Z,100590.19
2022-08-07T07:24:13.447Z,100590.22
2022-08-07T07:26:41.734Z,100586.69
2022-08-07T07:29:38.932Z,100590.63
2022-08-07T07:32:10.360Z,100590.78
2022-08-07T07:34:40.426Z,100586.41
2022-08-07T07:37:21.543Z,100582.88
2022-08-07T07:39:58.238Z,100579.31
2022-08-07T07:42:33.283Z,100582.44
2022-08-07T07:45:01.797Z,100583.00
2022-08-07T07:47:29.342Z,100578.75
2022-08-07T07:50:32.770Z,100579.16
2022-08-07T07:52:44.578Z,100563.34
2022-08-07T07:55:14.749Z,100572.22
2022-08-07T07:57:50.489Z,100578.41
2022-08-07T08:00:29.167Z,100574.16
2022-08-07T08:03:05.005Z,100568.31
2022-08-07T08:05:50.834Z,100563.06
2022-08-07T08:08:34.395Z,100575.91
2022-08-07T08:11:08.137Z,100570.63
2022-08-07T08:13:53.408Z,100564.34
2022-08-07T08:16:26.385Z,100565.63
2022-08-07T08:18:56.852Z,100567.41
2022-08-07T08:22:02.799Z,100562.69
2022-08-07T08:24:57.096Z,100569.16
2022-08-07T08:27:37.115Z,100564.72
2022-08-07T08:30:14.377Z,100558.25
2022-08-07T08:32:59.619Z,100552.25
2022-08-07T08:35:28.937Z,100554.41
2022-08-07T08:38:06.917Z,100557.72
2022-08-07T08:40:47.364Z,100548.84
2022-08-07T08:43:20.799Z,100550.75
2022-08-07T08:46:17.378Z,100549.97
2022-08-07T08:48:55.817Z,100553.75
2022-08-07T08:52:12.707Z,100549.25
2022-08-07T08:54:38.968Z,100544.13
2022-08-07T08:57:11.391Z,100545.50
2022-08-07T08:59:54.103Z,100544.75
2022-08-07T09:02:37.418Z,100549.00
2022-08-07T09:05:36.729Z,100550.59
2022-08-07T09:08:41.537Z,100546.22
2022-08-07T09:11:24.730Z,100537.50
2022-08-07T09:14:15.148Z,100529.63
2022-08-07T09:16:59.807Z,100545.81
2022-08-07T09:20:34.833Z,100534.41
2022-08-07T09:24:54.865Z,100534.56
2022-08-07T09:25:54.652Z,100529.03
2022-08-07T09:30:06.559Z,100528.22
2022-08-07T09:31:55.039Z,100527.38
2022-08-07T09:34:32.681Z,100519.78
2022-08-07T09:37:13.948Z,100519.63
2022-08-07T09:39:54.354Z,100517.91
2022-08-07T09:42:39.658Z,100514.72
2022-08-07T09:47:25.694Z,100511.88
2022-08-07T09:48:20.572Z,100508.69
2022-08-07T09:51:14.518Z,100506.81
2022-08-07T09:54:02.584Z,100495.84
2022-08-07T09:56:54.789Z,100495.28
2022-08-07T09:59:46.293Z,100497.28
2022-08-07T10:03:08.081Z,100488.16
2022-08-07T10:06:24.785Z,100492.53
2022-08-07T10:10:00.355Z,100477.34
2022-08-07T10:12:42.087Z,100482.69
2022-08-07T10:15:37.783Z,100477.81
2022-08-07T10:18:26.357Z,100468.19
2022-08-07T10:21:50.688Z,100476.94
2022-08-07T10:24:08.556Z,100476.44
2022-08-07T10:26:52.987Z,100470.00
2022-08-07T10:29:31.940Z,100468.47
2022-08-07T10:32:53.033Z,100466.94
2022-08-07T10:35:56.772Z,100459.66
2022-08-07T10:38:41.137Z,100462.66
2022-08-07T10:41:54.686Z,100460.94
2022-08-07T10:44:19.320Z,100452.34
2022-08-07T10:47:19.286Z,100454.50
2022-08-07T10:50:02.648Z,100459.56
2022-08-07T10:52:42.601Z,100443.97
2022-08-07T10:55:26.824Z,100443.97
2022-08-07T10:58:13.700Z,100449.66
2022-08-07T11:00:58.463Z,100441.94
2022-08-07T11:03:52.560Z,100439.72
2022-08-07T11:06:28.888Z,100438.03
2022-08-07T11:09:11.122Z,100442.56
2022-08-07T11:12:04.664Z,100433.81
2022-08-07T11:14:57.375Z,100423.50
2022-08-07T11:17:43.257Z,100429.91
2022-08-07T11:20:24.512Z,100421.59
2022-08-07T11:22:54.206Z,100424.91
2022-08-07T11:25:27.903Z,100415.50
2022-08-07T11:28:04.074Z,100407.56
2022-08-07T11:30:53.968Z,100415.78
2022-08-07T11:33:53.876Z,100407.66
2022-08-07T11:36:37.026Z,100397.97
2022-08-07T11:39:59.361Z,100403.28
2022-08-07T11:42:47.541Z,100395.94
2022-08-07T11:45:53.636Z,100401.28
2022-08-07T11:49:50.316Z,100404.81
2022-08-07T11:52:10.150Z,100392.41
2022-08-07T11:56:15.503Z,100393.63
2022-08-07T11:58:16.664Z,100392.19
2022-08-07T12:01:00.103Z,100397.16
2022-08-07T12:03:49.738Z,100390.34
2022-08-07T12:06:37.639Z,100384.72
2022-08-07T12:09:23.740Z,100381.88
2022-08-07T12:12:23.440Z,100385.03
2022-08-07T12:15:35.440Z,100377.38
2022-08-07T12:18:03.125Z,100366.34
2022-08-07T12:20:58.270Z,100370.81
2022-08-07T12:24:07.599Z,100369.06
2022-08-07T12:26:53.948Z,100371.53
2022-08-07T12:29:37.862Z,100364.97
2022-08-07T12:32:29.255Z,100354.13
2022-08-07T12:34:56.590Z,100349.56
2022-08-07T12:37:28.224Z,100348.50
2022-08-07T12:40:43.684Z,100342.34
2022-08-07T12:43:02.923Z,100340.34
2022-08-07T12:45:43.395Z,100337.72
2022-08-07T12:48:48.382Z,100335.94
2022-08-07T12:51:19.660Z,100342.59
2022-08-07T12:54:03.188Z,100334.28
2022-08-07T12:56:51.340Z,100333.59
2022-08-07T12:59:33.034Z,100342.44
2022-08-07T13:02:17.368Z,100331.78
2022-08-07T13:05:02.537Z,100335.59
2022-08-07T13:08:11.855Z,100337.13
2022-08-07T13:11:30.648Z,100335.75
2022-08-07T13:14:25.814Z,100337.06
2022-08-07T13:17:21.357Z,100333.81
2022-08-07T13:19:55.682Z,100320.78
2022-08-07T13:22:32.766Z,100335.50
2022-08-07T13:25:24.274Z,100324.41
2022-08-07T13:28:25.223Z,100315.63
2022-08-07T13:31:02.062Z,100327.06
2022-08-07T13:34:33.919Z,100320.38
2022-08-07T13:36:44.445Z,100316.88
2022-08-07T13:39:49.827Z,100307.75
2022-08-07T13:42:14.098Z,100296.56
2022-08-07T13:45:11.760Z,100308.75
2022-08-07T13:48:05.256Z,100306.66
2022-08-07T13:50:32.721Z,100305.00
2022-08-07T13:53:05.439Z,100303.47
2022-08-07T13:55:36.905Z,100301.59
2022-08-07T13:58:27.904Z,100294.69
2022-08-07T14:01:00.198Z,100280.72
2022-08-07T14:04:08.215Z,100286.16
2022-08-07T14:06:38.376Z,100289.31
2022-08-07T14:09:06.170Z,100290.00
2022-08-07T14:11:53.310Z,100283.97
2022-08-07T14:14:31.207Z,100276.88
2022-08-07T14:17:51.530Z,100274.53
2022-08-07T14:20:40.630Z,100277.75
2022-08-07T14:22:41.427Z,100281.06
2022-08-07T14:25:13.744Z,100270.25
2022-08-07T14:28:10.964Z,100273.63
2022-08-07T14:30:33.933Z,100265.03
2022-08-07T14:33:04.261Z,100268.59
2022-08-07T14:35:44.559Z,100263.16
2022-08-07T14:38:26.247Z,100266.09
2022-08-07T14:41:02.267Z,100263.78
2022-08-07T14:43:57.321Z,100252.09
2022-08-07T14:46:31.104Z,100252.09
2022-08-07T14:48:58.707Z,100251.66
2022-08-07T14:51:27.964Z,100249.38
2022-08-07T14:57:04.026Z,100251.88
2022-08-07T15:00:03.301Z,100253.56
2022-08-07T15:02:32.091Z,100249.38
2022-08-07T15:07:51.020Z,100248.53
2022-08-07T15:10:26.119Z,100250.41
2022-08-07T15:13:11.575Z,100242.91
2022-08-07T15:15:42.966Z,100238.28
2022-08-07T15:18:28.529Z,100227.00
2022-08-07T15:21:08.004Z,100224.50
2022-08-07T15:26:33.570Z,100221.97
2022-08-07T15:30:06.691Z,100231.00
2022-08-07T15:32:01.677Z,100227.66
2022-08-07T15:34:36.871Z,100218.03
2022-08-07T15:37:06.561Z,100220.31
2022-08-07T15:39:58.971Z,100218.66
2022-08-07T15:45:21.997Z,100218.47
2022-08-07T15:48:08.680Z,100215.09
2022-08-07T15:53:51.910Z,100199.19
2022-08-07T15:56:24.126Z,100206.53
2022-08-07T15:58:59.892Z,100201.28
2022-08-07T16:01:40.461Z,100204.66
2022-08-07T16:04:14.554Z,100210.72
2022-08-07T16:06:51.959Z,100205.91
2022-08-07T16:09:22.696Z,100205.91
2022-08-07T16:12:13.838Z,100204.81
2022-08-07T16:15:55.563Z,100207.16
2022-08-07T16:18:49.796Z,100201.50
2022-08-07T16:22:03.075Z,100199.81
2022-08-07T16:24:33.677Z,100185.63
2022-08-07T16:27:24.553Z,100188.13
2022-08-07T16:30:30.533Z,100177.47
2022-08-07T16:34:02.251Z,100183.72
2022-08-07T16:36:19.680Z,100190.00
2022-08-07T16:39:01.439Z,100184.38
2022-08-07T16:41:59.480Z,100187.47
2022-08-07T16:45:14.210Z,100192.72
2022-08-07T16:47:56.577Z,100193.34
2022-08-07T16:51:21.748Z,100195.00
2022-08-07T16:54:06.103Z,100196.03
2022-08-07T16:56:40.260Z,100187.91
2022-08-07T16:59:15.175Z,100199.81
2022-08-07T17:02:03.433Z,100197.72
2022-08-07T17:04:37.005Z,100190.81
2022-08-07T17:07:51.637Z,100191.03
2022-08-07T17:10:54.288Z,100181.22
2022-08-07T17:13:41.843Z,100188.50
2022-08-07T17:16:29.427Z,100190.53
2022-08-07T17:19:03.227Z,100192.00
2022-08-07T17:21:50.623Z,100184.06
2022-08-07T17:24:42.330Z,100191.34
2022-08-07T17:27:32.652Z,100193.03
2022-08-07T17:30:16.010Z,100187.19
2022-08-07T17:33:04.250Z,100202.63
2022-08-07T17:36:19.938Z,100200.50
2022-08-07T17:39:17.851Z,100206.31
2022-08-07T17:42:06.538Z,100201.09
2022-08-07T17:44:51.845Z,100207.97
2022-08-07T17:47:44.679Z,100203.13
2022-08-07T17:50:30.258Z,100207.09
2022-08-07T17:53:59.845Z,100202.91
2022-08-07T17:56:14.938Z,100205.19
2022-08-07T17:58:57.035Z,100213.69
2022-08-07T18:01:39.110Z,100207.19
2022-08-07T18:04:16.298Z,100220.50
2022-08-07T18:07:22.655Z,100215.25
2022-08-07T18:10:06.596Z,100215.47
2022-08-07T18:13:11.609Z,100217.69
2022-08-07T18:16:04.686Z,100230.16
2022-08-07T18:21:01.225Z,100224.28
2022-08-07T18:21:58.337Z,100229.47
2022-08-07T18:24:35.273Z,100232.38
2022-08-07T18:27:17.940Z,100243.00
2022-08-07T18:30:07.563Z,100240.03
2022-08-07T18:32:52.471Z,100237.53
2022-08-07T18:35:52.038Z,100236.22
2022-08-07T18:39:01.210Z,100245.78
2022-08-07T18:41:59.538Z,100240.47
2022-08-07T18:50:05.972Z,100252.16
2022-08-07T18:52:33.816Z,100251.28
2022-08-07T18:54:38.212Z,100249.69
2022-08-07T18:57:29.871Z,100260.22
2022-08-07T19:00:33.032Z,100251.97
2022-08-07T19:03:15.932Z,100261.91
2022-08-07T19:06:02.076Z,100264.94
2022-08-07T19:08:46.246Z,100264.41
2022-08-07T19:11:36.210Z,100271.22
2022-08-07T19:14:19.792Z,100268.41
2022-08-07T19:17:06.846Z,100270.84
2022-08-07T19:19:41.695Z,100284.66
2022-08-07T19:22:31.081Z,100291.00
2022-08-07T19:25:06.287Z,100299.75
2022-08-07T19:28:56.538Z,100296.75
2022-08-07T19:31:40.580Z,100294.47
2022-08-07T19:34:03.363Z,100297.06
2022-08-07T20:22:18.015Z,100329.16
2022-08-07T20:25:00.133Z,100341.97
2022-08-07T20:27:46.230Z,100338.31
2022-08-07T20:30:14.309Z,100336.81
2022-08-07T20:32:50.373Z,100338.16
2022-08-07T20:35:25.260Z,100340.75
2022-08-07T20:37:58.740Z,100343.13
2022-08-07T20:40:32.951Z,100346.38
2022-08-07T20:43:02.757Z,100349.41
2022-08-07T20:46:26.612Z,100343.69
2022-08-07T20:48:28.807Z,100335.47
2022-08-07T20:50:58.645Z,100330.94
2022-08-07T20:53:25.864Z,100330.44
2022-08-07T20:56:12.284Z,100334.53
2022-08-07T20:58:47.917Z,100330.50
2022-08-07T21:01:19.500Z,100334.69
2022-08-07T21:04:18.838Z,100327.97
2022-08-07T21:06:37.272Z,100326.13
2022-08-07T21:09:14.120Z,100326.31
2022-08-07T21:11:50.762Z,100334.09
2022-08-07T21:14:33.367Z,100324.97
2022-08-07T21:18:03.738Z,100329.03
2022-08-07T21:20:00.978Z,100328.53
2022-08-07T21:22:53.477Z,100323.16
2022-08-07T21:25:30.684Z,100322.66
2022-08-07T21:28:13.507Z,100321.34
2022-08-07T21:30:49.300Z,100322.00
2022-08-07T21:33:38.410Z,100317.13
2022-08-07T21:36:34.528Z,100321.16
2022-08-07T21:39:44.900Z,100319.00
2022-08-07T21:42:37.711Z,100316.94
2022-08-07T21:45:08.479Z,100313.91
2022-08-07T21:48:03.980Z,100314.56
2022-08-07T21:50:37.869Z,100315.59
2022-08-07T21:53:29.138Z,100316.41
2022-08-07T21:56:35.736Z,100315.06
2022-08-07T21:59:05.340Z,100315.56
2022-08-07T22:02:07.605Z,100308.66
2022-08-07T22:04:35.404Z,100317.09
2022-08-07T22:07:21.089Z,100324.47
2022-08-07T22:09:54.329Z,100317.91
2022-08-07T22:12:31.780Z,100319.91
2022-08-07T22:16:42.457Z,100320.91
2022-08-07T22:18:00.233Z,100315.53
2022-08-07T22:20:51.943Z,100322.25
2022-08-07T22:23:21.649Z,100320.25
2022-08-07T22:26:12.719Z,100320.91
2022-08-07T22:28:53.217Z,100315.00
2022-08-07T22:32:00.252Z,100321.56
2022-08-07T22:34:58.782Z,100325.59
2022-08-07T22:38:05.357Z,100331.81
2022-08-07T22:41:11.642Z,100329.78
2022-08-07T22:43:47.439Z,100328.25
2022-08-07T22:46:55.980Z,100328.91
2022-08-07T22:49:51.781Z,100328.06
2022-08-07T22:52:37.492Z,100330.94
2022-08-07T22:55:31.070Z,100335.44
2022-08-07T22:58:25.009Z,100334.75
2022-08-07T23:01:42.061Z,100334.56
2022-08-07T23:04:58.381Z,100330.00
2022-08-07T23:07:43.607Z,100326.94
2022-08-07T23:10:38.014Z,100323.41
2022-08-07T23:13:29.525Z,100325.75
2022-08-07T23:16:44.876Z,100335.59
2022-08-07T23:19:51.941Z,100323.31
2022-08-07T23:22:49.529Z,100325.19
2022-08-07T23:25:57.689Z,100319.75
2022-08-07T23:28:33.174Z,100319.22
2022-08-07T23:31:42.911Z,100315.00
2022-08-07T23:34:19.987Z,100322.41
2022-08-07T23:37:19.282Z,100318.34
2022-08-07T23:40:02.516Z,100322.03
2022-08-07T23:42:56.689Z,100326.88
2022-08-07T23:46:01.726Z,100315.75
2022-08-07T23:48:29.384Z,100319.78
2022-08-07T23:51:00.636Z,100314.41
2022-08-07T23:53:49.407Z,100321.97
2022-08-07T23:56:23.521Z,100308.88
